Time;durP1;ratioP1;P1;durP2;ratioP2;P2;SDS_P1;SDS_P2;PMS_P1;PMS_P2;Temp;Humidity;BMP_temperature;BMP_pressure;BME280_temperature;BME280_humidity;BME280_pressure;Samples;Min_cycle;Max_cycle;Signal;HPM_P1;HPM_P2
2021/07/07 00:01:13;;;;;;;5.68;2.70;;;16.30;99.90;;;;;;5035519;28;20488;-74
2021/07/07 00:03:38;;;;;;;3.75;2.45;;;16.40;99.90;;;;;;5045421;28;20033;-76
2021/07/07 00:06:04;;;;;;;4.68;2.78;;;16.40;99.90;;;;;;5033640;28;20056;-77
2021/07/07 00:08:29;;;;;;;3.90;2.70;;;16.50;99.90;;;;;;5040730;28;20024;-76
2021/07/07 00:10:55;;;;;;;6.25;3.13;;;16.60;99.90;;;;;;5040045;28;20024;-77
2021/07/07 00:13:20;;;;;;;4.00;2.95;;;16.50;99.90;;;;;;5040636;28;20025;-77
2021/07/07 00:15:46;;;;;;;3.70;2.60;;;16.50;99.90;;;;;;5042251;28;20026;-75
2021/07/07 00:18:13;;;;;;;3.97;2.72;;;16.60;99.90;;;;;;5033622;28;20036;-75
2021/07/07 00:20:46;;;;;;;5.63;3.03;;;16.60;99.90;;;;;;5038119;28;20031;-75
2021/07/07 00:23:12;;;;;;;4.55;2.50;;;16.70;99.90;;;;;;5047632;28;20020;-75
2021/07/07 00:25:38;;;;;;;4.22;2.72;;;16.80;99.90;;;;;;5031549;28;20025;-75
2021/07/07 00:28:04;;;;;;;4.95;2.75;;;16.80;99.90;;;;;;5046299;28;20032;-75
2021/07/07 00:30:30;;;;;;;4.63;2.90;;;16.90;99.90;;;;;;5039796;28;20025;-75
2021/07/07 00:32:56;;;;;;;3.63;3.08;;;17.00;99.90;;;;;;5043740;28;20028;-75
2021/07/07 00:35:23;;;;;;;5.22;3.08;;;17.10;99.90;;;;;;5037739;28;20022;-75
2021/07/07 00:37:48;;;;;;;10.07;3.78;;;16.90;99.90;;;;;;5042634;28;20079;-75
2021/07/07 00:40:15;;;;;;;4.53;3.67;;;16.70;99.90;;;;;;5042597;28;20029;-76
2021/07/07 00:42:41;;;;;;;5.38;2.85;;;16.50;99.90;;;;;;5039442;28;20057;-78
2021/07/07 00:45:07;;;;;;;4.85;2.72;;;16.60;99.90;;;;;;5037776;28;20090;-77
2021/07/07 00:47:33;;;;;;;6.13;2.75;;;16.70;99.90;;;;;;5044689;28;20053;-76
2021/07/07 00:49:58;;;;;;;4.40;3.10;;;16.70;99.90;;;;;;5046451;28;20376;-76
2021/07/07 00:52:24;;;;;;;4.72;3.00;;;16.60;99.90;;;;;;5040089;28;20461;-76
2021/07/07 00:54:50;;;;;;;4.13;3.20;;;16.70;99.90;;;;;;5046368;28;20017;-76
2021/07/07 00:57:19;;;;;;;4.05;3.10;;;16.80;99.90;;;;;;5045792;28;20427;-76
2021/07/07 00:59:49;;;;;;;5.80;4.70;;;16.90;99.90;;;;;;5045776;28;20446;-77
2021/07/07 01:02:17;;;;;;;7.40;3.90;;;16.80;99.90;;;;;;5052967;28;20052;-77
2021/07/07 01:04:43;;;;;;;8.00;4.53;;;16.70;99.90;;;;;;5044239;28;20040;-77
2021/07/07 01:07:09;;;;;;;9.57;5.30;;;16.80;99.90;;;;;;5047877;28;20030;-76
2021/07/07 01:09:36;;;;;;;6.88;5.03;;;16.80;99.90;;;;;;5044518;28;20021;-76
2021/07/07 01:12:01;;;;;;;6.57;4.00;;;16.50;99.90;;;;;;5046315;28;20494;-75
2021/07/07 01:14:27;;;;;;;6.75;4.50;;;16.40;99.90;;;;;;5044930;28;20095;-76
2021/07/07 01:16:53;;;;;;;6.00;4.10;;;16.60;99.90;;;;;;5039222;28;20049;-76
2021/07/07 01:19:19;;;;;;;9.43;4.15;;;16.70;99.90;;;;;;5043791;28;20050;-76
2021/07/07 01:21:46;;;;;;;7.05;4.78;;;16.90;99.90;;;;;;5047749;28;20025;-76
2021/07/07 01:24:13;;;;;;;4.75;3.55;;;16.90;99.90;;;;;;5045747;28;20029;-76
2021/07/07 01:26:39;;;;;;;6.43;4.25;;;17.10;99.90;;;;;;5046154;28;20059;-76
2021/07/07 01:29:04;;;;;;;5.25;4.18;;;17.00;99.90;;;;;;5044480;28;20471;-76
2021/07/07 01:31:30;;;;;;;5.32;4.82;;;16.70;99.90;;;;;;5046412;28;20017;-76
2021/07/07 01:33:56;;;;;;;6.82;4.70;;;16.60;99.90;;;;;;5037253;28;20036;-77
2021/07/07 01:36:21;;;;;;;6.97;5.28;;;16.60;99.90;;;;;;5049756;28;20021;-77
2021/07/07 01:38:47;;;;;;;5.50;4.95;;;16.40;99.90;;;;;;5042918;28;20025;-76
2021/07/07 01:41:13;;;;;;;5.45;3.97;;;16.30;99.90;;;;;;5048831;28;20033;-74
2021/07/07 01:43:39;;;;;;;5.10;4.10;;;16.30;99.90;;;;;;5047843;28;20086;-74
2021/07/07 01:46:04;;;;;;;5.90;4.90;;;16.60;99.90;;;;;;5045046;28;20024;-74
2021/07/07 01:48:30;;;;;;;6.97;4.43;;;16.70;99.90;;;;;;5045288;28;20017;-74
2021/07/07 01:50:55;;;;;;;6.78;4.90;;;16.60;99.90;;;;;;5046147;28;20021;-74
2021/07/07 01:53:21;;;;;;;6.47;4.60;;;16.70;99.90;;;;;;5043231;28;20463;-74
2021/07/07 01:55:46;;;;;;;11.10;6.25;;;16.50;99.90;;;;;;5045663;28;20032;-74
2021/07/07 01:58:12;;;;;;;9.98;5.18;;;16.10;99.90;;;;;;5045334;28;20026;-74
2021/07/07 02:00:38;;;;;;;5.85;4.82;;;16.00;99.90;;;;;;5044589;28;20025;-74
2021/07/07 02:03:03;;;;;;;7.30;4.75;;;16.30;99.90;;;;;;5038067;28;20029;-74
2021/07/07 02:05:33;;;;;;;5.75;4.38;;;16.50;99.90;;;;;;5044288;28;20135;-75
2021/07/07 02:08:00;;;;;;;7.03;5.72;;;16.70;99.90;;;;;;5042555;28;20017;-74
2021/07/07 02:10:26;;;;;;;9.95;5.78;;;16.70;99.90;;;;;;5039115;28;20026;-74
2021/07/07 02:12:52;;;;;;;11.98;5.72;;;16.50;99.90;;;;;;5042207;28;20095;-74
2021/07/07 02:15:23;;;;;;;9.88;6.20;;;16.00;99.90;;;;;;5046980;28;20028;-74
2021/07/07 02:17:50;;;;;;;8.63;6.53;;;15.90;99.90;;;;;;5031656;28;20112;-75
2021/07/07 02:20:16;;;;;;;9.07;6.50;;;16.00;99.90;;;;;;5032818;28;20030;-75
2021/07/07 02:22:43;;;;;;;7.28;6.07;;;16.00;99.90;;;;;;5034006;28;20434;-75
2021/07/07 02:25:14;;;;;;;7.65;6.53;;;16.10;99.90;;;;;;5033579;28;20029;-74
2021/07/07 02:27:40;;;;;;;7.07;5.30;;;16.20;99.90;;;;;;5033781;28;20064;-75
2021/07/07 02:30:09;;;;;;;9.30;6.35;;;16.10;99.90;;;;;;5033719;28;20057;-75
2021/07/07 02:32:35;;;;;;;7.43;5.63;;;16.00;99.90;;;;;;5032503;28;20434;-75
2021/07/07 02:35:00;;;;;;;6.15;5.30;;;15.90;99.90;;;;;;5032310;28;20025;-75
2021/07/07 02:37:26;;;;;;;6.35;5.75;;;15.90;99.90;;;;;;5033747;28;20033;-75
2021/07/07 02:39:51;;;;;;;6.78;6.15;;;16.00;99.90;;;;;;5033886;28;20029;-75
2021/07/07 02:42:17;;;;;;;8.23;6.80;;;15.90;99.90;;;;;;5033621;28;20021;-75
2021/07/07 02:44:44;;;;;;;8.55;6.22;;;15.90;99.90;;;;;;5033144;28;20090;-74
2021/07/07 02:47:09;;;;;;;7.97;7.18;;;16.00;99.90;;;;;;5033432;28;20029;-74
2021/07/07 02:49:35;;;;;;;13.15;8.30;;;16.10;99.90;;;;;;5033389;28;20029;-75
2021/07/07 02:52:01;;;;;;;9.95;8.77;;;16.00;99.90;;;;;;5033456;28;20022;-75
2021/07/07 02:54:26;;;;;;;8.55;7.30;;;16.10;99.90;;;;;;5033116;28;20028;-75
2021/07/07 02:56:51;;;;;;;9.63;7.22;;;16.30;99.90;;;;;;5033311;28;20041;-75
2021/07/07 02:59:17;;;;;;;5.65;5.13;;;16.40;99.90;;;;;;5033157;28;20041;-75
2021/07/07 03:01:43;;;;;;;6.75;6.05;;;16.60;99.90;;;;;;5032014;28;20091;-75
2021/07/07 03:04:08;;;;;;;8.75;7.22;;;16.70;99.90;;;;;;5031688;28;20040;-74
2021/07/07 03:06:34;;;;;;;7.07;6.28;;;16.50;99.90;;;;;;5031686;28;20025;-74
2021/07/07 03:09:01;;;;;;;9.00;5.25;;;16.40;99.90;;;;;;5032924;28;20048;-76
2021/07/07 03:11:27;;;;;;;9.07;5.65;;;16.50;99.90;;;;;;5033107;28;20018;-77
2021/07/07 03:13:52;;;;;;;6.85;5.95;;;16.60;99.90;;;;;;5033304;28;20030;-76
2021/07/07 03:16:18;;;;;;;7.97;7.00;;;16.70;99.90;;;;;;5032966;28;20021;-76
2021/07/07 03:18:43;;;;;;;9.10;7.30;;;16.70;99.90;;;;;;5032826;28;20022;-76
2021/07/07 03:21:11;;;;;;;12.13;7.82;;;16.60;99.90;;;;;;5031636;28;20036;-76
2021/07/07 03:23:36;;;;;;;10.70;8.95;;;16.30;99.90;;;;;;5032761;28;20404;-77
2021/07/07 03:26:02;;;;;;;12.38;8.45;;;16.20;99.90;;;;;;5031250;28;20032;-75
2021/07/07 03:28:28;;;;;;;18.60;10.88;;;16.20;99.90;;;;;;5032494;28;20033;-75
2021/07/07 03:30:54;;;;;;;12.43;10.57;;;16.30;99.90;;;;;;5032709;28;20026;-74
2021/07/07 03:33:19;;;;;;;13.00;10.35;;;16.30;99.90;;;;;;5032639;28;20037;-74
2021/07/07 03:35:45;;;;;;;14.27;9.60;;;16.30;99.90;;;;;;5032319;28;20022;-75
2021/07/07 03:38:11;;;;;;;11.25;9.02;;;16.20;99.90;;;;;;5031195;28;20079;-74
2021/07/07 03:40:38;;;;;;;15.30;8.98;;;16.20;99.90;;;;;;5032541;28;20029;-74
2021/07/07 03:43:04;;;;;;;7.65;6.32;;;16.20;99.90;;;;;;5032262;28;20585;-75
2021/07/07 03:45:30;;;;;;;7.35;6.65;;;16.40;99.90;;;;;;5032086;28;20049;-75
2021/07/07 03:47:55;;;;;;;5.40;4.90;;;16.60;99.90;;;;;;5032262;28;20049;-74
2021/07/07 03:50:22;;;;;;;7.10;5.07;;;16.60;99.90;;;;;;5032384;28;20364;-75
2021/07/07 03:52:49;;;;;;;8.38;4.90;;;16.60;99.90;;;;;;5032222;28;20017;-74
2021/07/07 03:55:16;;;;;;;7.47;6.10;;;16.60;99.90;;;;;;5032524;28;20052;-74
2021/07/07 03:57:43;;;;;;;6.97;5.60;;;16.40;99.90;;;;;;5030657;28;20029;-74
2021/07/07 04:00:12;;;;;;;7.82;5.35;;;16.40;99.90;;;;;;5032437;28;20025;-74
2021/07/07 04:02:38;;;;;;;7.60;6.65;;;16.30;99.90;;;;;;5032126;28;20113;-74
2021/07/07 04:05:06;;;;;;;8.40;5.55;;;16.20;99.90;;;;;;5030560;28;20124;-74
2021/07/07 04:07:31;;;;;;;6.32;5.72;;;16.10;99.90;;;;;;5031749;28;20025;-74
2021/07/07 04:09:57;;;;;;;6.88;5.82;;;16.20;99.90;;;;;;5030549;28;20108;-74
2021/07/07 04:12:22;;;;;;;6.60;6.00;;;16.30;99.90;;;;;;5032081;28;20025;-75
2021/07/07 04:14:48;;;;;;;7.00;6.22;;;16.10;99.90;;;;;;5032102;28;20029;-75
2021/07/07 04:17:13;;;;;;;10.70;6.30;;;15.90;99.90;;;;;;5032252;28;20103;-75
2021/07/07 04:19:39;;;;;;;8.52;5.43;;;15.90;99.90;;;;;;5032016;28;20116;-75
2021/07/07 04:22:05;;;;;;;8.07;6.25;;;16.10;99.90;;;;;;5031051;28;20037;-75
2021/07/07 04:24:30;;;;;;;8.05;5.93;;;16.20;99.90;;;;;;5031906;28;20052;-75
2021/07/07 04:26:56;;;;;;;10.13;6.95;;;16.20;99.90;;;;;;5031728;28;20092;-75
2021/07/07 04:29:21;;;;;;;11.43;5.75;;;15.90;99.90;;;;;;5031946;28;20029;-75
2021/07/07 04:31:47;;;;;;;6.85;6.15;;;15.90;99.90;;;;;;5030610;28;20072;-75
2021/07/07 04:34:13;;;;;;;6.20;5.25;;;16.00;99.90;;;;;;5031812;28;20032;-75
2021/07/07 04:36:39;;;;;;;6.93;5.68;;;16.10;99.90;;;;;;5030271;28;20076;-74
2021/07/07 04:39:06;;;;;;;6.97;5.78;;;16.00;99.90;;;;;;5031808;28;20045;-74
2021/07/07 04:41:32;;;;;;;5.57;5.05;;;16.00;99.90;;;;;;5030475;28;20026;-75
2021/07/07 04:43:58;;;;;;;8.75;5.43;;;16.10;99.90;;;;;;5031719;28;20031;-75
2021/07/07 04:46:23;;;;;;;6.72;5.57;;;16.30;99.90;;;;;;5030115;28;20499;-75
2021/07/07 04:48:49;;;;;;;8.30;7.00;;;16.50;99.90;;;;;;5031645;28;20025;-74
2021/07/07 04:51:15;;;;;;;7.75;6.28;;;16.40;99.90;;;;;;5031609;28;20026;-74
2021/07/07 04:53:41;;;;;;;9.52;6.45;;;16.20;99.90;;;;;;5031711;28;20033;-74
2021/07/07 04:56:06;;;;;;;8.10;6.90;;;16.20;99.90;;;;;;5030299;28;20411;-74
2021/07/07 04:58:33;;;;;;;7.55;6.30;;;16.10;99.90;;;;;;5031603;28;20033;-74
2021/07/07 05:00:59;;;;;;;7.88;7.05;;;16.10;99.90;;;;;;5030273;28;20030;-74
2021/07/07 05:03:24;;;;;;;10.23;7.10;;;16.20;99.90;;;;;;5030161;28;20037;-74
2021/07/07 05:05:50;;;;;;;9.05;8.13;;;16.40;99.90;;;;;;5030961;28;20052;-74
2021/07/07 05:08:15;;;;;;;7.78;7.07;;;16.50;99.90;;;;;;5031553;28;20109;-74
2021/07/07 05:10:41;;;;;;;9.15;7.88;;;16.40;99.90;;;;;;5030044;28;20030;-75
2021/07/07 05:13:07;;;;;;;13.27;7.88;;;16.40;99.90;;;;;;5031534;28;20419;-75
2021/07/07 05:15:33;;;;;;;10.93;7.85;;;16.50;99.90;;;;;;5031112;28;20040;-74
2021/07/07 05:17:59;;;;;;;7.88;7.18;;;16.70;99.90;;;;;;5031372;28;20403;-74
2021/07/07 05:20:24;;;;;;;8.98;7.75;;;16.70;99.90;;;;;;5031209;28;20033;-74
2021/07/07 05:22:50;;;;;;;10.85;8.90;;;16.60;99.90;;;;;;5031390;28;20040;-74
2021/07/07 05:25:18;;;;;;;13.82;9.90;;;16.50;99.90;;;;;;5031160;28;20084;-74
2021/07/07 05:27:45;;;;;;;11.73;9.10;;;16.30;99.90;;;;;;5031264;28;20383;-74
2021/07/07 05:30:12;;;;;;;16.15;9.98;;;16.20;99.90;;;;;;5031281;28;20044;-75
2021/07/07 05:32:39;;;;;;;10.25;9.25;;;16.30;99.90;;;;;;5032682;28;20484;-75
2021/07/07 05:35:05;;;;;;;12.35;9.77;;;16.10;99.90;;;;;;5034792;28;20108;-74
2021/07/07 05:37:31;;;;;;;12.25;10.25;;;16.30;99.90;;;;;;5034838;28;20053;-76
2021/07/07 05:39:57;;;;;;;14.20;12.00;;;16.40;99.90;;;;;;5035010;28;20061;-75
2021/07/07 05:42:22;;;;;;;17.38;11.55;;;16.20;99.90;;;;;;5033658;28;20517;-75
2021/07/07 05:44:50;;;;;;;20.17;13.80;;;16.10;99.90;;;;;;5034757;28;20641;-75
2021/07/07 05:47:16;;;;;;;18.80;15.70;;;16.10;99.90;;;;;;5034785;28;20030;-75
2021/07/07 05:49:42;;;;;;;19.98;15.40;;;15.90;99.90;;;;;;5034706;28;20033;-76
2021/07/07 05:52:08;;;;;;;22.75;17.20;;;15.90;99.90;;;;;;5033529;28;20507;-75
2021/07/07 05:54:34;;;;;;;20.60;16.65;;;16.00;99.90;;;;;;5034638;28;20029;-75
2021/07/07 05:57:00;;;;;;;22.98;18.15;;;16.00;99.90;;;;;;5033300;28;20095;-76
2021/07/07 05:59:25;;;;;;;20.63;17.92;;;15.90;99.90;;;;;;5034661;28;20033;-75
2021/07/07 06:01:51;;;;;;;23.85;17.73;;;15.90;99.90;;;;;;5033353;28;20541;-75
2021/07/07 06:04:16;;;;;;;21.05;16.35;;;15.90;99.90;;;;;;5034986;28;20033;-77
2021/07/07 06:06:42;;;;;;;18.00;15.77;;;16.00;99.90;;;;;;5033180;28;20030;-75
2021/07/07 06:09:07;;;;;;;21.50;15.68;;;15.90;99.90;;;;;;5028287;28;20026;-76
2021/07/07 06:11:33;;;;;;;18.25;14.40;;;15.90;99.90;;;;;;5023043;28;20076;-75
2021/07/07 06:13:59;;;;;;;15.30;12.23;;;16.10;99.90;;;;;;5034373;28;20572;-75
2021/07/07 06:16:24;;;;;;;14.10;10.68;;;16.00;99.90;;;;;;5032828;28;20021;-76
2021/07/07 06:18:50;;;;;;;12.35;11.07;;;16.20;99.90;;;;;;5034296;28;20021;-76
2021/07/07 06:21:17;;;;;;;11.45;9.32;;;16.30;99.90;;;;;;5032971;28;20017;-76
2021/07/07 06:23:42;;;;;;;12.93;9.00;;;16.30;99.90;;;;;;5034135;28;20071;-75
2021/07/07 06:26:08;;;;;;;10.65;9.57;;;16.50;99.90;;;;;;5033878;28;20033;-75
2021/07/07 06:28:33;;;;;;;10.95;9.43;;;16.70;99.90;;;;;;5033960;28;20030;-75
2021/07/07 06:30:59;;;;;;;9.48;8.57;;;16.70;99.90;;;;;;5033951;28;20025;-76
2021/07/07 06:33:24;;;;;;;9.77;8.77;;;16.60;99.90;;;;;;5032944;28;20014;-75
2021/07/07 06:35:50;;;;;;;10.02;8.23;;;16.60;99.90;;;;;;5033578;28;20021;-73
2021/07/07 06:38:15;;;;;;;11.98;9.43;;;16.90;99.90;;;;;;5032410;28;20033;-75
2021/07/07 06:40:41;;;;;;;11.90;8.57;;;16.80;99.90;;;;;;5033606;28;20096;-75
2021/07/07 06:43:07;;;;;;;11.52;8.30;;;16.60;99.90;;;;;;5033506;28;20037;-76
2021/07/07 06:45:37;;;;;;;8.98;7.80;;;16.50;99.90;;;;;;5031329;28;20120;-75
2021/07/07 06:48:07;;;;;;;8.63;7.82;;;16.70;99.90;;;;;;5032165;28;20373;-75
2021/07/07 06:50:33;;;;;;;11.60;8.02;;;16.50;99.90;;;;;;5032467;28;20582;-75
2021/07/07 06:53:00;;;;;;;11.82;9.00;;;16.50;99.90;;;;;;5033370;28;20131;-76
2021/07/07 06:55:26;;;;;;;10.70;9.07;;;16.60;99.90;;;;;;5035505;28;20025;-75
2021/07/07 06:57:51;;;;;;;10.60;9.55;;;16.40;99.90;;;;;;5038300;28;20036;-75
2021/07/07 07:00:18;;;;;;;12.65;10.60;;;16.40;99.90;;;;;;5031593;28;20412;-74
2021/07/07 07:02:44;;;;;;;11.82;10.60;;;16.40;99.90;;;;;;5035800;28;20034;-75
2021/07/07 07:05:12;;;;;;;12.10;10.90;;;16.40;99.90;;;;;;5032983;28;20120;-75
2021/07/07 07:07:38;;;;;;;14.35;11.30;;;16.40;99.90;;;;;;5033215;28;20033;-75
2021/07/07 07:10:05;;;;;;;13.38;11.18;;;16.40;99.90;;;;;;5033098;28;20034;-75
2021/07/07 07:12:30;;;;;;;16.75;12.32;;;16.60;99.90;;;;;;5033142;28;20064;-75
2021/07/07 07:14:57;;;;;;;13.82;12.45;;;16.60;99.90;;;;;;5031718;28;20045;-77
2021/07/07 07:17:24;;;;;;;15.13;13.52;;;16.70;99.90;;;;;;5031671;28;20119;-76
2021/07/07 07:19:50;;;;;;;15.20;13.68;;;16.70;99.90;;;;;;5032883;28;20116;-76
2021/07/07 07:22:16;;;;;;;17.00;14.23;;;16.70;99.90;;;;;;5031734;28;20028;-76
2021/07/07 07:24:44;;;;;;;15.15;13.45;;;16.80;99.90;;;;;;5032693;28;20039;-75
2021/07/07 07:27:09;;;;;;;14.70;12.93;;;16.90;99.90;;;;;;5032627;28;20097;-76
2021/07/07 07:29:37;;;;;;;12.98;11.68;;;17.20;99.90;;;;;;5032938;28;20575;-76
2021/07/07 07:32:03;;;;;;;12.82;10.65;;;17.30;99.90;;;;;;5032855;28;20091;-75
2021/07/07 07:34:29;;;;;;;11.88;10.68;;;17.20;99.90;;;;;;5032606;28;20029;-76
2021/07/07 07:37:01;;;;;;;12.38;11.07;;;17.20;99.90;;;;;;5032714;28;20031;-76
2021/07/07 07:39:28;;;;;;;12.07;10.85;;;17.10;99.90;;;;;;5032782;28;20025;-75
2021/07/07 07:41:57;;;;;;;11.20;9.68;;;17.10;99.90;;;;;;5031394;28;20084;-76
2021/07/07 07:44:22;;;;;;;8.93;8.02;;;17.10;99.90;;;;;;5031125;28;20029;-75
2021/07/07 07:46:49;;;;;;;9.20;7.57;;;16.90;99.90;;;;;;5032392;28;20151;-76
2021/07/07 07:49:15;;;;;;;10.02;9.02;;;16.60;99.90;;;;;;5032542;28;20101;-75
2021/07/07 07:51:41;;;;;;;9.77;8.98;;;16.60;99.90;;;;;;5032355;28;20498;-75
2021/07/07 07:54:06;;;;;;;9.20;8.27;;;16.80;99.90;;;;;;5031014;28;20030;-75
2021/07/07 07:56:32;;;;;;;10.65;9.40;;;17.00;99.90;;;;;;5031861;28;20384;-75
2021/07/07 07:58:58;;;;;;;13.30;9.18;;;17.20;99.90;;;;;;5032328;28;20026;-75
2021/07/07 08:01:24;;;;;;;8.13;7.32;;;17.20;99.90;;;;;;5030915;28;20033;-75
2021/07/07 08:03:50;;;;;;;8.98;7.78;;;17.20;99.90;;;;;;5032149;28;20033;-75
2021/07/07 08:06:16;;;;;;;8.68;6.78;;;17.00;99.90;;;;;;5032001;28;20017;-75
2021/07/07 08:08:41;;;;;;;7.38;6.50;;;16.90;99.90;;;;;;5032098;28;20083;-75
2021/07/07 08:11:07;;;;;;;6.45;5.30;;;17.10;99.90;;;;;;5030950;28;20067;-75
2021/07/07 08:13:33;;;;;;;8.55;6.53;;;17.20;99.90;;;;;;5030848;28;20471;-75
2021/07/07 08:15:59;;;;;;;6.68;5.93;;;17.60;99.90;;;;;;5031988;28;20033;-75
2021/07/07 08:18:24;;;;;;;6.20;5.60;;;17.90;99.90;;;;;;5030871;28;20029;-75
2021/07/07 08:20:50;;;;;;;7.40;5.85;;;17.90;99.90;;;;;;5032144;28;20052;-76
2021/07/07 08:23:16;;;;;;;6.80;6.10;;;18.10;99.90;;;;;;5030847;28;20116;-75
2021/07/07 08:25:42;;;;;;;6.20;5.60;;;18.40;99.90;;;;;;5030487;28;20032;-76
2021/07/07 08:28:07;;;;;;;7.30;5.50;;;18.40;99.90;;;;;;5030610;28;20037;-75
2021/07/07 08:30:33;;;;;;;6.75;6.13;;;18.40;99.90;;;;;;5031829;28;20025;-76
2021/07/07 08:32:59;;;;;;;6.65;5.25;;;18.40;99.90;;;;;;5030662;28;20026;-76
2021/07/07 08:35:24;;;;;;;6.22;5.38;;;18.20;99.90;;;;;;5031670;28;20084;-76
2021/07/07 08:37:50;;;;;;;5.75;4.75;;;18.20;99.90;;;;;;5031702;28;20026;-76
2021/07/07 08:40:17;;;;;;;6.22;4.80;;;18.20;99.90;;;;;;5031752;28;20025;-76
2021/07/07 08:42:44;;;;;;;6.10;5.50;;;18.40;99.90;;;;;;5030690;28;20399;-77
2021/07/07 08:45:13;;;;;;;15.52;6.22;;;18.20;99.90;;;;;;5031691;28;20026;-76
2021/07/07 08:47:41;;;;;;;7.10;4.60;;;18.20;99.90;;;;;;5031678;28;20025;-76
2021/07/07 08:50:10;;;;;;;5.90;5.30;;;18.20;99.90;;;;;;5030607;28;20084;-77
2021/07/07 08:52:39;;;;;;;9.48;5.20;;;18.10;99.90;;;;;;5032040;28;20064;-77
2021/07/07 08:55:10;;;;;;;6.30;5.35;;;17.90;99.90;;;;;;5031653;28;20083;-77
2021/07/07 08:57:43;;;;;;;6.40;5.15;;;17.70;99.90;;;;;;5031304;28;20044;-77
2021/07/07 09:00:33;;;;;;;7.30;4.90;;;17.60;99.90;;;;;;5031794;28;20025;-76
2021/07/07 09:03:13;;;;;;;5.47;4.95;;;17.80;99.90;;;;;;5031709;28;20035;-77
2021/07/07 09:05:50;;;;;;;7.57;5.28;;;17.70;99.90;;;;;;5030144;28;20476;-76
2021/07/07 09:08:24;;;;;;;7.38;5.03;;;17.80;99.90;;;;;;5034158;28;20108;-77
2021/07/07 09:10:50;;;;;;;7.45;5.10;;;17.60;99.90;;;;;;5032021;28;20021;-76
2021/07/07 09:13:21;;;;;;;7.95;5.03;;;17.70;99.90;;;;;;5035497;28;20021;-76
2021/07/07 09:15:47;;;;;;;6.65;4.40;;;17.80;99.90;;;;;;5033828;28;20087;-76
2021/07/07 09:18:22;;;;;;;6.97;5.03;;;18.00;99.90;;;;;;5035461;28;20033;-75
2021/07/07 09:20:48;;;;;;;5.93;5.32;;;18.20;99.90;;;;;;5035356;28;20025;-76
2021/07/07 09:23:26;;;;;;;5.38;4.80;;;18.00;99.90;;;;;;5035326;28;20026;-76
2021/07/07 09:25:58;;;;;;;5.28;4.78;;;18.20;99.90;;;;;;5037129;28;20026;-76
2021/07/07 09:28:36;;;;;;;6.40;4.80;;;18.10;99.90;;;;;;5035094;28;20421;-76
2021/07/07 09:31:05;;;;;;;7.85;5.25;;;18.30;99.90;;;;;;5035121;28;20087;-76
2021/07/07 09:33:39;;;;;;;6.78;5.20;;;18.40;99.90;;;;;;5035033;28;20025;-76
2021/07/07 09:36:24;;;;;;;6.05;4.80;;;18.40;99.90;;;;;;5033381;28;20067;-76
2021/07/07 09:38:52;;;;;;;6.97;4.68;;;18.30;99.90;;;;;;5033648;28;20056;-76
2021/07/07 09:41:19;;;;;;;4.75;4.28;;;18.30;99.90;;;;;;5035524;28;20037;-76
2021/07/07 09:43:49;;;;;;;6.38;4.63;;;18.00;99.90;;;;;;5033756;28;20399;-75
2021/07/07 09:46:17;;;;;;;5.07;4.47;;;17.90;99.90;;;;;;5034454;28;20114;-76
2021/07/07 09:48:42;;;;;;;7.20;5.32;;;18.00;99.90;;;;;;5034664;28;20026;-76
2021/07/07 09:51:08;;;;;;;5.85;3.97;;;17.60;99.90;;;;;;5034778;28;20032;-76
2021/07/07 09:53:34;;;;;;;6.55;4.03;;;17.60;99.90;;;;;;5033481;28;20475;-76
2021/07/07 09:56:03;;;;;;;7.05;4.30;;;17.50;99.90;;;;;;5034471;28;20559;-76
2021/07/07 09:58:29;;;;;;;5.28;3.90;;;17.60;99.90;;;;;;5034615;28;20038;-76
2021/07/07 10:00:54;;;;;;;6.30;3.90;;;17.70;99.90;;;;;;5033324;28;20029;-76
2021/07/07 10:03:20;;;;;;;4.88;4.00;;;17.80;99.90;;;;;;5034434;28;20103;-76
2021/07/07 10:05:47;;;;;;;5.22;4.65;;;17.70;99.90;;;;;;5034206;28;20059;-76
2021/07/07 10:08:13;;;;;;;6.07;4.07;;;17.90;99.90;;;;;;5033392;28;20080;-76
2021/07/07 10:10:41;;;;;;;7.38;4.80;;;18.10;99.90;;;;;;5038764;28;20017;-76
2021/07/07 10:13:10;;;;;;;6.88;4.50;;;18.70;99.90;;;;;;5043597;28;20373;-76
2021/07/07 10:15:36;;;;;;;5.10;4.40;;;19.50;99.90;;;;;;5041617;28;20024;-76
2021/07/07 10:18:04;;;;;;;7.25;4.30;;;19.90;99.90;;;;;;5042492;28;20017;-76
2021/07/07 10:20:29;;;;;;;5.32;4.60;;;19.80;99.90;;;;;;5042117;28;20360;-76
2021/07/07 10:22:57;;;;;;;5.68;5.05;;;20.00;99.90;;;;;;5049303;28;20042;-76
2021/07/07 10:25:25;;;;;;;6.10;4.80;;;19.70;99.90;;;;;;5040916;28;20620;-76
2021/07/07 10:27:53;;;;;;;5.70;4.65;;;19.70;99.90;;;;;;5043493;28;20111;-76
2021/07/07 10:30:20;;;;;;;5.97;4.72;;;20.00;99.90;;;;;;5046580;28;20021;-76
2021/07/07 10:33:06;;;;;;;9.27;4.90;;;19.80;99.90;;;;;;5039116;28;20018;-76
2021/07/07 10:35:31;;;;;;;7.18;4.88;;;20.00;99.90;;;;;;5043795;28;20021;-76
2021/07/07 10:37:57;;;;;;;7.80;5.10;;;20.00;99.90;;;;;;5045422;28;20078;-76
2021/07/07 10:40:24;;;;;;;5.32;4.38;;;19.90;99.90;;;;;;5045381;28;20037;-76
2021/07/07 10:42:50;;;;;;;6.00;4.60;;;19.90;99.90;;;;;;5040491;28;20021;-76
2021/07/07 10:45:32;;;;;;;6.15;4.15;;;19.50;99.90;;;;;;5036285;28;20495;-75
2021/07/07 10:48:32;;;;;;;4.03;3.63;;;19.80;99.90;;;;;;5053648;28;20033;-75
2021/07/07 10:51:10;;;;;;;7.10;3.88;;;19.60;99.90;;;;;;5037196;28;20025;-75
2021/07/07 10:53:36;;;;;;;5.55;3.63;;;19.30;99.90;;;;;;5033680;28;20451;-76
2021/07/07 10:56:04;;;;;;;7.38;3.75;;;19.30;99.90;;;;;;5033490;28;20075;-76
2021/07/07 10:58:39;;;;;;;6.85;4.00;;;19.30;99.90;;;;;;5037801;28;20021;-75
2021/07/07 11:01:30;;;;;;;4.20;3.80;;;19.80;99.90;;;;;;5051297;28;20025;-75
2021/07/07 11:04:04;;;;;;;5.72;3.60;;;20.10;99.90;;;;;;5040089;28;20034;-75
2021/07/07 11:06:36;;;;;;;3.38;3.08;;;20.20;99.90;;;;;;5032799;28;20120;-75
2021/07/07 11:09:16;;;;;;;4.82;3.13;;;20.10;99.90;;;;;;5033397;28;20048;-75
2021/07/07 11:11:47;;;;;;;4.93;3.25;;;19.80;99.90;;;;;;5039274;28;20017;-76
2021/07/07 11:14:20;;;;;;;4.63;3.00;;;20.20;99.90;;;;;;5051238;28;20056;-75
2021/07/07 11:16:57;;;;;;;4.22;2.90;;;20.20;99.90;;;;;;5047796;28;20017;-75
2021/07/07 11:19:37;;;;;;;4.10;2.97;;;20.70;99.90;;;;;;5049778;28;20407;-75
2021/07/07 11:22:02;;;;;;;5.05;2.90;;;20.70;99.90;;;;;;5032251;28;20479;-75
2021/07/07 11:24:28;;;;;;;5.40;3.47;;;20.50;99.90;;;;;;5052933;28;20021;-75
2021/07/07 11:26:56;;;;;;;8.63;3.70;;;20.60;99.90;;;;;;5043828;28;20391;-75
2021/07/07 11:29:22;;;;;;;5.20;3.70;;;20.20;99.90;;;;;;5032981;28;20025;-76
2021/07/07 11:31:48;;;;;;;3.92;3.50;;;20.30;99.90;;;;;;5037880;28;20021;-75
2021/07/07 11:34:14;;;;;;;4.82;3.15;;;20.30;99.90;;;;;;5052702;28;20399;-75
2021/07/07 11:36:40;;;;;;;4.82;3.22;;;19.90;99.90;;;;;;5051262;28;20060;-75
2021/07/07 11:39:07;;;;;;;4.85;2.95;;;20.10;99.90;;;;;;5052648;28;20114;-76
2021/07/07 11:41:32;;;;;;;4.40;3.08;;;20.20;99.90;;;;;;5052718;28;20159;-76
2021/07/07 11:43:59;;;;;;;5.03;2.92;;;20.60;99.90;;;;;;5051423;28;20072;-75
2021/07/07 11:46:30;;;;;;;4.32;2.88;;;20.40;99.90;;;;;;5052421;28;20021;-75
2021/07/07 11:49:10;;;;;;;4.28;2.40;;;19.90;99.90;;;;;;5052486;28;20025;-75
2021/07/07 11:51:38;;;;;;;3.13;2.80;;;19.80;99.90;;;;;;5052254;28;20025;-75
2021/07/07 11:54:04;;;;;;;5.03;3.20;;;20.10;99.90;;;;;;5052393;28;20027;-76
2021/07/07 11:56:30;;;;;;;4.60;2.70;;;20.80;99.90;;;;;;5052219;28;20044;-75
2021/07/07 11:59:02;;;;;;;3.42;3.05;;;21.20;99.90;;;;;;5052441;28;20179;-76
2021/07/07 12:01:31;;;;;;;3.60;2.95;;;21.20;99.90;;;;;;5052304;28;20074;-75
2021/07/07 12:04:12;;;;;;;16.63;14.88;;;20.90;99.90;;;;;;5052220;28;20068;-75
2021/07/07 12:06:45;;;;;;;4.55;3.00;;;21.00;99.90;;;;;;5050733;28;20552;-75
2021/07/07 12:09:19;;;;;;;3.30;2.53;;;20.70;99.90;;;;;;5052549;28;20032;-75
2021/07/07 12:11:57;;;;;;;3.83;2.90;;;20.90;99.90;;;;;;5050812;28;20521;-75
2021/07/07 12:14:24;;;;;;;6.00;2.78;;;20.60;99.90;;;;;;5050871;28;20048;-75
2021/07/07 12:16:51;;;;;;;5.40;2.95;;;20.60;99.90;;;;;;5052096;28;20090;-75
2021/07/07 12:19:17;;;;;;;3.05;2.70;;;20.70;99.90;;;;;;5052146;28;20075;-75
2021/07/07 12:21:46;;;;;;;2.78;2.40;;;20.90;99.90;;;;;;5051981;28;20146;-75
2021/07/07 12:24:32;;;;;;;4.20;3.03;;;20.70;99.90;;;;;;5051012;28;20444;-75
2021/07/07 12:27:13;;;;;;;5.15;2.70;;;20.70;99.90;;;;;;5051437;28;20069;-75
2021/07/07 12:29:46;;;;;;;2.85;2.53;;;20.90;99.90;;;;;;5050659;28;20044;-76
2021/07/07 12:32:17;;;;;;;4.97;2.72;;;20.90;99.90;;;;;;5051929;28;20399;-76
2021/07/07 12:34:49;;;;;;;6.47;2.60;;;20.90;99.90;;;;;;5051828;28;20071;-76
2021/07/07 12:37:16;;;;;;;2.85;2.55;;;21.20;99.90;;;;;;5051770;28;20031;-75
2021/07/07 12:39:53;;;;;;;2.60;2.40;;;21.00;99.90;;;;;;5050433;28;20481;-75
2021/07/07 12:42:28;;;;;;;3.42;3.10;;;21.40;99.90;;;;;;5042931;28;20026;-75
2021/07/07 12:45:06;;;;;;;3.33;3.03;;;22.00;99.90;;;;;;5031783;28;20076;-76